Lena — V2FR — position and weather

sailwx.info

Track history (hours):
 
Tides and Currents Weather Stations Pressure Air Temp Water Temp Dewpoint Dewpoint Depression Visibility Wind Speed Wind Dir Waves Ship Positions

Lena

Last reported at 2017-May-16 17:35 UTC. Time now 2017-May-23 05:05 UTC.
Position N 09°36' W 079°56'.

Length 152 m; draft 8.2 m.

Type: Cargo ship. MMSI: 304080808.

Date/timePositionNaut miles runAvg speedWind from/ knotsBaromVisibWave heightAir tempDewpointWater temp
2017-May-16 17:35N 09°36' W 079°56'217.6
2017-May-16 17:28N 09°34' W 079°55'817.6
2017-May-16 17:00N 09°26' W 079°55'3 5.7
2017-May-16 16:30N 09°23' W 079°55'0 0.1
2017-May-16 16:00N 09°23' W 079°55'0 0.0
2017-May-16 15:30N 09°23' W 079°55'0 0.0
2017-May-16 15:00N 09°23' W 079°55'0 0.0
2017-May-16 14:30N 09°23' W 079°55'0 0.0
2017-May-16 13:30N 09°23' W 079°55'0 0.0
2017-May-16 13:00N 09°23' W 079°55'0 0.0
2017-May-16 12:30N 09°23' W 079°55'0 0.0
2017-May-16 12:00N 09°23' W 079°55'0 0.0
2017-May-16 11:30N 09°23' W 079°55'0 0.0
2017-May-16 11:00N 09°23' W 079°55'0 0.0
2017-May-16 10:30N 09°23' W 079°55'0 0.0
2017-May-16 10:00N 09°23' W 079°55'0 0.0
2017-May-16 09:30N 09°23' W 079°55'0 0.0
2017-May-16 09:00N 09°23' W 079°55'0 0.0
2017-May-16 08:30N 09°23' W 079°55'0 0.0
2017-May-16 08:00N 09°23' W 079°55'0 0.0
2017-May-16 07:30N 09°23' W 079°55'0 0.0
2017-May-16 07:00N 09°23' W 079°55'1 2.2
2017-May-16 06:30N 09°22' W 079°55'5 9.5
2017-May-16 06:00N 09°17' W 079°55'1 1.1
2017-May-16 05:28N 09°16' W 079°55'0 0.5
2017-May-16 05:00N 09°16' W 079°55'  
Track history (hours):
 
Tides and Currents Weather Stations Pressure Air Temp Water Temp Dewpoint Dewpoint Depression Visibility Wind Speed Wind Dir Waves Ship Positions

Lena

Last reported at 2017-May-16 17:35 UTC. Time now 2017-May-23 05:05 UTC.
Position N 09°36' W 079°56'.

Length 152 m; draft 8.2 m.

Type: Cargo ship. MMSI: 304080808.

Date/timePositionNaut miles runAvg speedWind from/ knotsBaromVisibWave heightAir tempDewpointWater temp
2017-May-16 17:35N 09°36' W 079°56'217.6
2017-May-16 17:28N 09°34' W 079°55'817.6
2017-May-16 17:00N 09°26' W 079°55'3 5.7
2017-May-16 16:30N 09°23' W 079°55'0 0.1
2017-May-16 16:00N 09°23' W 079°55'0 0.0
2017-May-16 15:30N 09°23' W 079°55'0 0.0
2017-May-16 15:00N 09°23' W 079°55'0 0.0
2017-May-16 14:30N 09°23' W 079°55'0 0.0
2017-May-16 13:30N 09°23' W 079°55'0 0.0
2017-May-16 13:00N 09°23' W 079°55'0 0.0
2017-May-16 12:30N 09°23' W 079°55'0 0.0
2017-May-16 12:00N 09°23' W 079°55'0 0.0
2017-May-16 11:30N 09°23' W 079°55'0 0.0
2017-May-16 11:00N 09°23' W 079°55'0 0.0
2017-May-16 10:30N 09°23' W 079°55'0 0.0
2017-May-16 10:00N 09°23' W 079°55'0 0.0
2017-May-16 09:30N 09°23' W 079°55'0 0.0
2017-May-16 09:00N 09°23' W 079°55'0 0.0
2017-May-16 08:30N 09°23' W 079°55'0 0.0
2017-May-16 08:00N 09°23' W 079°55'0 0.0
2017-May-16 07:30N 09°23' W 079°55'0 0.0
2017-May-16 07:00N 09°23' W 079°55'1 2.2
2017-May-16 06:30N 09°22' W 079°55'5 9.5
2017-May-16 06:00N 09°17' W 079°55'1 1.1
2017-May-16 05:28N 09°16' W 079°55'0 0.5
2017-May-16 05:00N 09°16' W 079°55'  

Dump ship's entire track history